Rouen Vallée de Seine Airport

LFOP · Seine-Maritime, Normandy, 法国

使用的METAR站距离机场69 km。
罗盘
风向 的 风向 170° Rouen Airport 5/23
风: 7 kt, 3 beaufort

4 kt

5 kt
改变
0 ft 5.000 10.000 15.000 20.000
Cloud Cloud Cloud Cloud Cloud Cloud
BKN 2.100
Cloud Cloud Cloud Cloud Cloud Cloud Cloud Cloud
OVC 12.000
METAR LFOB 281800Z AUTO 17007KT 9999 BKN021 OVC120 09/07 Q1020 BECMG BKN009

METAR Rouen Airport - LFOP/URO

Rouen Airport是,法国中的中型机场。 该机场位于纬度49,38525和经度1,17620。 该机场有一条跑道: 5/23. 本场的ICAO机场代码为LFOP。 该机场的IATA代码为URO。 机场在Paris FIR中。

该航空气象观测是针对Paris Beauvais Tillé Airport在2024年2月28日 19:00, 当地时间进行的。

机场观察

风向为170°,速度为7 kt。

可见度为10 km 或者更多。

有碎云在2.100 ft的高度 和 乌云密布在12.000 ft的高度。 破损或更高的上限为2.100 ft。

温度为9 °C,阵风为6 °C。 露点为7 °C,相对湿度为87%。 海平面上的气压为1020 hPa (QNH)。

发展趋势

  • 变得

    可变方向的风很小或没有。 碎云在900 ft的高度.

白天

今天,太阳从07:40升起,在18:35降落。 这适用于Rouen Airport,世界夏令时可能有所不同。 当地时间与世界标准时间之间的时差为+1 小时。 当前,没有夏令时有效。

公司介绍

在这个机场,你可以找到飞行俱乐部。 本场上唯一已知的公司是Aéro-Club de Rouen Normandie。

体会

到Vliegles.nl去找飞行课程,跳伞和其他飞行体验。 浏览页面,了解Rouen Airport附近所有可用的活动。 你也可以使用搜索功能来寻找你所在地附近的特定飞行课程、跳伞或其他飞行体验。

跑道

Id 标题 侧风 逆风 侧风 %
5/23 041°-221° 5 kt 4 kt 78 %

逆风成分最大的方向会被突出显示,并用于横风计算。 这并不一定意味着这个方向在使用。

乌云

2.100 ft BKN 碎云
12.000 ft OVC 乌云密布
900 ft BKN 变得 碎云

温度 & 天气

温度 9 °C
露点 7 °C
相对湿度 87%
风寒 6 °C
Kp-index 0 (0-9)

白天

日出
07:36 (12:21)
中午
13:04
日落
18:31

小工具

你想在你的网站上有一个关于Rouen Airport的当前航空天气(METAR)的小部件吗?

显示HTML代码
?>